sensor_id;sensor_type;location;lat;lon;timestamp;temperature;humidity
4279;DHT22;2153;47.744;10.580;2022-07-17T00:01:48;10.90;99.90
4279;DHT22;2153;47.744;10.580;2022-07-17T00:04:15;11.00;99.90
4279;DHT22;2153;47.744;10.580;2022-07-17T00:06:41;10.90;99.90
4279;DHT22;2153;47.744;10.580;2022-07-17T00:09:08;10.90;99.90
4279;DHT22;2153;47.744;10.580;2022-07-17T00:11:36;10.90;99.90
4279;DHT22;2153;47.744;10.580;2022-07-17T00:14:03;10.80;99.90
4279;DHT22;2153;47.744;10.580;2022-07-17T00:16:30;10.90;99.90
4279;DHT22;2153;47.744;10.580;2022-07-17T00:18:57;10.80;99.90
4279;DHT22;2153;47.744;10.580;2022-07-17T00:21:24;10.50;99.90
4279;DHT22;2153;47.744;10.580;2022-07-17T00:23:51;10.50;99.90
4279;DHT22;2153;47.744;10.580;2022-07-17T00:26:18;10.50;99.90
4279;DHT22;2153;47.744;10.580;2022-07-17T00:28:46;10.40;99.90
4279;DHT22;2153;47.744;10.580;2022-07-17T00:31:12;10.40;99.90
4279;DHT22;2153;47.744;10.580;2022-07-17T00:33:39;10.30;99.90
4279;DHT22;2153;47.744;10.580;2022-07-17T00:36:07;10.20;99.90
4279;DHT22;2153;47.744;10.580;2022-07-17T00:38:34;10.10;99.90
4279;DHT22;2153;47.744;10.580;2022-07-17T00:41:00;10.10;99.90
4279;DHT22;2153;47.744;10.580;2022-07-17T00:43:27;10.10;99.90
4279;DHT22;2153;47.744;10.580;2022-07-17T00:45:57;10.20;99.90
4279;DHT22;2153;47.744;10.580;2022-07-17T00:48:25;10.20;99.90
4279;DHT22;2153;47.744;10.580;2022-07-17T00:50:52;10.10;99.90
4279;DHT22;2153;47.744;10.580;2022-07-17T00:53:19;10.10;99.90
4279;DHT22;2153;47.744;10.580;2022-07-17T00:55:47;10.10;99.90
4279;DHT22;2153;47.744;10.580;2022-07-17T00:58:18;10.10;99.90
4279;DHT22;2153;47.744;10.580;2022-07-17T01:00:47;10.20;99.90
4279;DHT22;2153;47.744;10.580;2022-07-17T01:03:16;10.20;99.90
4279;DHT22;2153;47.744;10.580;2022-07-17T01:05:43;10.20;99.90
4279;DHT22;2153;47.744;10.580;2022-07-17T01:08:10;10.00;99.90
4279;DHT22;2153;47.744;10.580;2022-07-17T01:10:37;9.90;99.90
4279;DHT22;2153;47.744;10.580;2022-07-17T01:13:04;9.90;99.90
4279;DHT22;2153;47.744;10.580;2022-07-17T01:15:31;9.90;99.90
4279;DHT22;2153;47.744;10.580;2022-07-17T01:17:59;9.90;99.90
4279;DHT22;2153;47.744;10.580;2022-07-17T01:20:31;9.90;99.90
4279;DHT22;2153;47.744;10.580;2022-07-17T01:22:59;9.70;99.90
4279;DHT22;2153;47.744;10.580;2022-07-17T01:25:26;9.50;99.90
4279;DHT22;2153;47.744;10.580;2022-07-17T01:27:53;9.50;99.90
4279;DHT22;2153;47.744;10.580;2022-07-17T01:30:19;9.50;99.90
4279;DHT22;2153;47.744;10.580;2022-07-17T01:32:46;9.50;99.90
4279;DHT22;2153;47.744;10.580;2022-07-17T01:35:14;9.50;99.90
4279;DHT22;2153;47.744;10.580;2022-07-17T01:37:42;9.50;99.90
4279;DHT22;2153;47.744;10.580;2022-07-17T01:40:12;9.60;99.90
4279;DHT22;2153;47.744;10.580;2022-07-17T01:42:41;9.60;99.90
4279;DHT22;2153;47.744;10.580;2022-07-17T01:45:09;9.60;99.90
4279;DHT22;2153;47.744;10.580;2022-07-17T01:47:35;9.70;99.90
4279;DHT22;2153;47.744;10.580;2022-07-17T01:50:03;9.60;99.90
4279;DHT22;2153;47.744;10.580;2022-07-17T01:52:30;9.50;99.90
4279;DHT22;2153;47.744;10.580;2022-07-17T01:54:57;9.50;99.90
4279;DHT22;2153;47.744;10.580;2022-07-17T01:57:25;9.30;99.90
4279;DHT22;2153;47.744;10.580;2022-07-17T01:59:51;9.30;99.90
4279;DHT22;2153;47.744;10.580;2022-07-17T02:02:18;9.30;99.90
4279;DHT22;2153;47.744;10.580;2022-07-17T02:04:45;9.40;99.90
4279;DHT22;2153;47.744;10.580;2022-07-17T02:07:12;9.40;99.90
4279;DHT22;2153;47.744;10.580;2022-07-17T02:09:39;9.40;99.90
4279;DHT22;2153;47.744;10.580;2022-07-17T02:12:06;9.20;99.90
4279;DHT22;2153;47.744;10.580;2022-07-17T02:14:35;9.10;99.90
4279;DHT22;2153;47.744;10.580;2022-07-17T02:17:02;9.10;99.90
4279;DHT22;2153;47.744;10.580;2022-07-17T02:19:29;9.00;99.90
4279;DHT22;2153;47.744;10.580;2022-07-17T02:21:56;8.90;99.90
4279;DHT22;2153;47.744;10.580;2022-07-17T02:24:22;9.00;99.90
4279;DHT22;2153;47.744;10.580;2022-07-17T02:26:49;9.10;99.90
4279;DHT22;2153;47.744;10.580;2022-07-17T02:29:16;9.10;99.90
4279;DHT22;2153;47.744;10.580;2022-07-17T02:31:44;9.00;99.90
4279;DHT22;2153;47.744;10.580;2022-07-17T02:34:11;8.90;99.90
4279;DHT22;2153;47.744;10.580;2022-07-17T02:36:37;8.80;99.90
4279;DHT22;2153;47.744;10.580;2022-07-17T02:39:04;8.90;99.90
4279;DHT22;2153;47.744;10.580;2022-07-17T02:41:31;8.80;99.90
4279;DHT22;2153;47.744;10.580;2022-07-17T02:43:57;8.70;99.90
4279;DHT22;2153;47.744;10.580;2022-07-17T02:46:24;8.70;99.90
4279;DHT22;2153;47.744;10.580;2022-07-17T02:48:52;8.60;99.90
4279;DHT22;2153;47.744;10.580;2022-07-17T02:51:19;8.60;99.90
4279;DHT22;2153;47.744;10.580;2022-07-17T02:53:46;8.70;99.90
4279;DHT22;2153;47.744;10.580;2022-07-17T02:56:12;8.80;99.90
4279;DHT22;2153;47.744;10.580;2022-07-17T02:58:39;8.70;99.90
4279;DHT22;2153;47.744;10.580;2022-07-17T03:01:06;8.70;99.90
4279;DHT22;2153;47.744;10.580;2022-07-17T03:03:32;8.70;99.90
4279;DHT22;2153;47.744;10.580;2022-07-17T03:06:01;8.70;99.90
4279;DHT22;2153;47.744;10.580;2022-07-17T03:08:27;8.70;99.90
4279;DHT22;2153;47.744;10.580;2022-07-17T03:10:54;8.60;99.90
4279;DHT22;2153;47.744;10.580;2022-07-17T03:13:21;8.70;99.90
4279;DHT22;2153;47.744;10.580;2022-07-17T03:15:47;8.70;99.90
4279;DHT22;2153;47.744;10.580;2022-07-17T03:18:14;8.60;99.90
4279;DHT22;2153;47.744;10.580;2022-07-17T03:20:41;8.50;99.90
4279;DHT22;2153;47.744;10.580;2022-07-17T03:23:09;8.50;99.90
4279;DHT22;2153;47.744;10.580;2022-07-17T03:25:36;8.50;99.90
4279;DHT22;2153;47.744;10.580;2022-07-17T03:28:03;8.50;99.90
4279;DHT22;2153;47.744;10.580;2022-07-17T03:30:30;8.40;99.90
4279;DHT22;2153;47.744;10.580;2022-07-17T03:32:56;8.30;99.90
4279;DHT22;2153;47.744;10.580;2022-07-17T03:35:23;8.30;99.90
4279;DHT22;2153;47.744;10.580;2022-07-17T03:37:50;8.20;99.90
4279;DHT22;2153;47.744;10.580;2022-07-17T03:40:18;8.20;99.90
4279;DHT22;2153;47.744;10.580;2022-07-17T03:42:45;8.20;99.90
4279;DHT22;2153;47.744;10.580;2022-07-17T03:45:11;8.30;99.90
4279;DHT22;2153;47.744;10.580;2022-07-17T03:47:38;8.20;99.90
4279;DHT22;2153;47.744;10.580;2022-07-17T03:50:05;8.20;99.90
4279;DHT22;2153;47.744;10.580;2022-07-17T03:52:32;8.20;99.90
4279;DHT22;2153;47.744;10.580;2022-07-17T03:54:59;8.30;99.90
4279;DHT22;2153;47.744;10.580;2022-07-17T03:57:27;8.40;99.90
4279;DHT22;2153;47.744;10.580;2022-07-17T03:59:54;8.40;99.90
4279;DHT22;2153;47.744;10.580;2022-07-17T04:02:21;8.30;99.90
4279;DHT22;2153;47.744;10.580;2022-07-17T04:04:47;8.30;99.90
4279;DHT22;2153;47.744;10.580;2022-07-17T04:07:14;8.40;99.90
4279;DHT22;2153;47.744;10.580;2022-07-17T04:09:54;8.60;99.90
4279;DHT22;2153;47.744;10.580;2022-07-17T04:12:21;8.70;99.90
4279;DHT22;2153;47.744;10.580;2022-07-17T04:14:50;8.60;99.90
4279;DHT22;2153;47.744;10.580;2022-07-17T04:17:16;8.60;99.90
4279;DHT22;2153;47.744;10.580;2022-07-17T04:19:43;8.70;99.90
4279;DHT22;2153;47.744;10.580;2022-07-17T04:22:10;8.80;99.90
4279;DHT22;2153;47.744;10.580;2022-07-17T04:24:37;8.90;99.90
4279;DHT22;2153;47.744;10.580;2022-07-17T04:27:04;9.10;99.90
4279;DHT22;2153;47.744;10.580;2022-07-17T04:29:31;9.20;99.90
4279;DHT22;2153;47.744;10.580;2022-07-17T04:31:59;9.50;99.90
4279;DHT22;2153;47.744;10.580;2022-07-17T04:34:26;9.70;99.90
4279;DHT22;2153;47.744;10.580;2022-07-17T04:36:53;9.90;99.90
4279;DHT22;2153;47.744;10.580;2022-07-17T04:39:20;10.10;99.90
4279;DHT22;2153;47.744;10.580;2022-07-17T04:41:47;10.30;99.90
4279;DHT22;2153;47.744;10.580;2022-07-17T04:44:13;10.50;99.90
4279;DHT22;2153;47.744;10.580;2022-07-17T04:46:41;10.70;99.90
4279;DHT22;2153;47.744;10.580;2022-07-17T04:49:09;10.80;99.90
4279;DHT22;2153;47.744;10.580;2022-07-17T04:51:36;10.80;99.90
4279;DHT22;2153;47.744;10.580;2022-07-17T04:54:03;10.70;99.90
4279;DHT22;2153;47.744;10.580;2022-07-17T04:56:29;10.90;99.90
4279;DHT22;2153;47.744;10.580;2022-07-17T04:58:56;11.00;99.90
4279;DHT22;2153;47.744;10.580;2022-07-17T05:01:23;11.00;99.90
4279;DHT22;2153;47.744;10.580;2022-07-17T05:03:49;11.20;99.90
4279;DHT22;2153;47.744;10.580;2022-07-17T05:06:18;11.30;99.90
4279;DHT22;2153;47.744;10.580;2022-07-17T05:08:44;11.70;99.90
4279;DHT22;2153;47.744;10.580;2022-07-17T05:11:11;11.80;99.90
4279;DHT22;2153;47.744;10.580;2022-07-17T05:13:38;12.10;99.90
4279;DHT22;2153;47.744;10.580;2022-07-17T05:16:05;12.40;99.90
4279;DHT22;2153;47.744;10.580;2022-07-17T05:18:32;12.70;99.90
4279;DHT22;2153;47.744;10.580;2022-07-17T05:20:58;12.80;99.90
4279;DHT22;2153;47.744;10.580;2022-07-17T05:23:26;13.00;99.90
4279;DHT22;2153;47.744;10.580;2022-07-17T05:25:53;13.20;99.90
4279;DHT22;2153;47.744;10.580;2022-07-17T05:28:20;13.30;99.90
4279;DHT22;2153;47.744;10.580;2022-07-17T05:30:47;13.50;99.90
4279;DHT22;2153;47.744;10.580;2022-07-17T05:33:13;13.60;99.90
4279;DHT22;2153;47.744;10.580;2022-07-17T05:35:40;13.70;99.90
4279;DHT22;2153;47.744;10.580;2022-07-17T05:38:07;13.90;99.90
4279;DHT22;2153;47.744;10.580;2022-07-17T05:40:35;14.00;99.90
4279;DHT22;2153;47.744;10.580;2022-07-17T05:43:01;14.30;99.90
4279;DHT22;2153;47.744;10.580;2022-07-17T05:45:28;14.50;99.90
4279;DHT22;2153;47.744;10.580;2022-07-17T05:47:55;14.60;99.90
4279;DHT22;2153;47.744;10.580;2022-07-17T05:50:22;14.80;99.90
4279;DHT22;2153;47.744;10.580;2022-07-17T05:52:48;14.90;99.90
4279;DHT22;2153;47.744;10.580;2022-07-17T05:55:15;15.10;99.90
4279;DHT22;2153;47.744;10.580;2022-07-17T05:57:43;15.30;99.90
4279;DHT22;2153;47.744;10.580;2022-07-17T06:00:11;15.40;99.90
4279;DHT22;2153;47.744;10.580;2022-07-17T06:02:38;15.60;99.90
4279;DHT22;2153;47.744;10.580;2022-07-17T06:05:05;15.80;99.90
4279;DHT22;2153;47.744;10.580;2022-07-17T06:07:32;16.10;99.90
4279;DHT22;2153;47.744;10.580;2022-07-17T06:09:59;16.40;99.90
4279;DHT22;2153;47.744;10.580;2022-07-17T06:12:26;16.70;99.90
4279;DHT22;2153;47.744;10.580;2022-07-17T06:14:54;17.10;99.90
4279;DHT22;2153;47.744;10.580;2022-07-17T06:17:21;17.50;99.90
4279;DHT22;2153;47.744;10.580;2022-07-17T06:19:48;17.70;99.90
4279;DHT22;2153;47.744;10.580;2022-07-17T06:22:17;18.00;99.90
4279;DHT22;2153;47.744;10.580;2022-07-17T06:24:44;18.40;99.90
4279;DHT22;2153;47.744;10.580;2022-07-17T06:27:10;18.80;99.90
4279;DHT22;2153;47.744;10.580;2022-07-17T06:29:37;18.40;99.90
4279;DHT22;2153;47.744;10.580;2022-07-17T06:32:06;18.40;99.90
4279;DHT22;2153;47.744;10.580;2022-07-17T06:34:33;18.60;99.90
4279;DHT22;2153;47.744;10.580;2022-07-17T06:36:59;18.90;99.90
4279;DHT22;2153;47.744;10.580;2022-07-17T06:39:26;19.20;99.90
4279;DHT22;2153;47.744;10.580;2022-07-17T06:41:53;19.20;99.90
4279;DHT22;2153;47.744;10.580;2022-07-17T06:44:19;19.10;99.90
4279;DHT22;2153;47.744;10.580;2022-07-17T06:46:46;19.30;99.90
4279;DHT22;2153;47.744;10.580;2022-07-17T06:49:14;20.00;99.90
4279;DHT22;2153;47.744;10.580;2022-07-17T06:51:41;20.70;99.90
4279;DHT22;2153;47.744;10.580;2022-07-17T06:54:11;21.30;99.90
4279;DHT22;2153;47.744;10.580;2022-07-17T06:56:37;20.90;99.90
4279;DHT22;2153;47.744;10.580;2022-07-17T06:59:04;21.50;99.90
4279;DHT22;2153;47.744;10.580;2022-07-17T07:01:32;21.30;99.90
4279;DHT22;2153;47.744;10.580;2022-07-17T07:03:59;21.60;99.90
4279;DHT22;2153;47.744;10.580;2022-07-17T07:06:27;22.30;99.90
4279;DHT22;2153;47.744;10.580;2022-07-17T07:08:54;22.40;99.90
4279;DHT22;2153;47.744;10.580;2022-07-17T07:11:21;22.70;99.90
4279;DHT22;2153;47.744;10.580;2022-07-17T07:13:48;22.50;99.90
4279;DHT22;2153;47.744;10.580;2022-07-17T07:16:15;22.00;99.90
4279;DHT22;2153;47.744;10.580;2022-07-17T07:18:41;22.00;99.90
4279;DHT22;2153;47.744;10.580;2022-07-17T07:21:08;21.50;99.90
4279;DHT22;2153;47.744;10.580;2022-07-17T07:23:36;21.00;99.90
4279;DHT22;2153;47.744;10.580;2022-07-17T07:26:03;21.10;99.90
4279;DHT22;2153;47.744;10.580;2022-07-17T07:28:30;21.10;99.90
4279;DHT22;2153;47.744;10.580;2022-07-17T07:30:57;20.80;99.90
4279;DHT22;2153;47.744;10.580;2022-07-17T07:33:23;20.90;99.90
4279;DHT22;2153;47.744;10.580;2022-07-17T07:35:50;20.90;99.90
4279;DHT22;2153;47.744;10.580;2022-07-17T07:38:17;20.80;99.90
4279;DHT22;2153;47.744;10.580;2022-07-17T07:40:46;20.80;99.90
4279;DHT22;2153;47.744;10.580;2022-07-17T07:43:12;21.20;99.90
4279;DHT22;2153;47.744;10.580;2022-07-17T07:45:39;21.70;99.90
4279;DHT22;2153;47.744;10.580;2022-07-17T07:48:06;21.70;99.90
4279;DHT22;2153;47.744;10.580;2022-07-17T07:50:32;21.30;99.90
4279;DHT22;2153;47.744;10.580;2022-07-17T07:52:59;21.10;99.90
4279;DHT22;2153;47.744;10.580;2022-07-17T07:55:26;21.50;99.90
4279;DHT22;2153;47.744;10.580;2022-07-17T07:58:03;22.40;99.90
4279;DHT22;2153;47.744;10.580;2022-07-17T08:00:30;22.20;99.90
4279;DHT22;2153;47.744;10.580;2022-07-17T08:02:57;22.10;96.30
4279;DHT22;2153;47.744;10.580;2022-07-17T08:05:23;21.90;87.00
4279;DHT22;2153;47.744;10.580;2022-07-17T08:07:50;22.00;94.30
4279;DHT22;2153;47.744;10.580;2022-07-17T08:10:17;22.30;87.80
4279;DHT22;2153;47.744;10.580;2022-07-17T08:12:44;22.60;90.40
4279;DHT22;2153;47.744;10.580;2022-07-17T08:15:13;22.30;75.60
4279;DHT22;2153;47.744;10.580;2022-07-17T08:17:40;22.10;74.50
4279;DHT22;2153;47.744;10.580;2022-07-17T08:20:07;22.10;72.30
4279;DHT22;2153;47.744;10.580;2022-07-17T08:22:34;21.90;82.60
4279;DHT22;2153;47.744;10.580;2022-07-17T08:25:01;22.20;88.90
4279;DHT22;2153;47.744;10.580;2022-07-17T08:27:28;22.80;84.50
4279;DHT22;2153;47.744;10.580;2022-07-17T08:29:54;23.00;70.60
4279;DHT22;2153;47.744;10.580;2022-07-17T08:32:22;22.70;65.20
4279;DHT22;2153;47.744;10.580;2022-07-17T08:34:49;22.50;65.30
4279;DHT22;2153;47.744;10.580;2022-07-17T08:37:16;22.70;82.70
4279;DHT22;2153;47.744;10.580;2022-07-17T08:39:42;22.40;75.80
4279;DHT22;2153;47.744;10.580;2022-07-17T08:42:09;22.80;78.50
4279;DHT22;2153;47.744;10.580;2022-07-17T08:44:41;23.30;88.50
4279;DHT22;2153;47.744;10.580;2022-07-17T08:47:08;23.70;94.90
4279;DHT22;2153;47.744;10.580;2022-07-17T08:49:43;24.60;79.40
4279;DHT22;2153;47.744;10.580;2022-07-17T08:52:10;24.50;71.40
4279;DHT22;2153;47.744;10.580;2022-07-17T08:54:36;24.40;75.50
4279;DHT22;2153;47.744;10.580;2022-07-17T08:57:03;24.40;57.50
4279;DHT22;2153;47.744;10.580;2022-07-17T08:59:30;24.60;72.70
4279;DHT22;2153;47.744;10.580;2022-07-17T09:01:58;24.90;75.20
4279;DHT22;2153;47.744;10.580;2022-07-17T09:04:25;25.40;72.10
4279;DHT22;2153;47.744;10.580;2022-07-17T09:06:59;25.90;71.10
4279;DHT22;2153;47.744;10.580;2022-07-17T09:09:27;26.50;70.50
4279;DHT22;2153;47.744;10.580;2022-07-17T09:11:54;26.20;51.20
4279;DHT22;2153;47.744;10.580;2022-07-17T09:14:21;26.20;56.50
4279;DHT22;2153;47.744;10.580;2022-07-17T09:16:50;26.20;46.50
4279;DHT22;2153;47.744;10.580;2022-07-17T09:19:28;26.60;41.00
4279;DHT22;2153;47.744;10.580;2022-07-17T09:22:07;26.70;33.40
4279;DHT22;2153;47.744;10.580;2022-07-17T09:24:42;26.80;26.60
4279;DHT22;2153;47.744;10.580;2022-07-17T09:27:10;26.40;24.00
4279;DHT22;2153;47.744;10.580;2022-07-17T09:29:53;26.00;28.80
4279;DHT22;2153;47.744;10.580;2022-07-17T09:32:21;25.80;29.10
4279;DHT22;2153;47.744;10.580;2022-07-17T09:34:49;26.20;33.60
4279;DHT22;2153;47.744;10.580;2022-07-17T09:37:18;25.80;30.80
4279;DHT22;2153;47.744;10.580;2022-07-17T09:39:44;25.70;34.40
4279;DHT22;2153;47.744;10.580;2022-07-17T09:42:25;25.90;34.50
4279;DHT22;2153;47.744;10.580;2022-07-17T09:45:00;26.70;25.70
4279;DHT22;2153;47.744;10.580;2022-07-17T09:47:29;27.20;25.30
4279;DHT22;2153;47.744;10.580;2022-07-17T09:49:57;27.40;18.50
4279;DHT22;2153;47.744;10.580;2022-07-17T09:52:28;27.70;19.90
4279;DHT22;2153;47.744;10.580;2022-07-17T09:54:57;28.20;18.20
4279;DHT22;2153;47.744;10.580;2022-07-17T09:57:26;27.50;7.70
4279;DHT22;2153;47.744;10.580;2022-07-17T09:59:54;26.40;8.90
4279;DHT22;2153;47.744;10.580;2022-07-17T10:02:21;26.90;17.50
4279;DHT22;2153;47.744;10.580;2022-07-17T10:04:48;27.30;16.10
4279;DHT22;2153;47.744;10.580;2022-07-17T10:07:15;27.40;14.90
4279;DHT22;2153;47.744;10.580;2022-07-17T10:09:44;27.20;12.90
4279;DHT22;2153;47.744;10.580;2022-07-17T10:12:11;26.40;11.70
4279;DHT22;2153;47.744;10.580;2022-07-17T10:14:40;26.40;17.60
4279;DHT22;2153;47.744;10.580;2022-07-17T10:17:08;26.50;13.90
4279;DHT22;2153;47.744;10.580;2022-07-17T10:19:46;26.60;15.80
4279;DHT22;2153;47.744;10.580;2022-07-17T10:22:12;27.00;22.30
4279;DHT22;2153;47.744;10.580;2022-07-17T10:24:47;27.30;13.10
4279;DHT22;2153;47.744;10.580;2022-07-17T10:27:19;27.40;15.40
4279;DHT22;2153;47.744;10.580;2022-07-17T10:29:46;27.30;12.90
4279;DHT22;2153;47.744;10.580;2022-07-17T10:32:15;27.60;13.60
4279;DHT22;2153;47.744;10.580;2022-07-17T10:34:44;27.80;10.40
4279;DHT22;2153;47.744;10.580;2022-07-17T10:37:19;28.10;12.60
4279;DHT22;2153;47.744;10.580;2022-07-17T10:39:55;28.70;11.50
4279;DHT22;2153;47.744;10.580;2022-07-17T10:42:43;28.10;9.10
4279;DHT22;2153;47.744;10.580;2022-07-17T10:45:12;27.30;10.40
4279;DHT22;2153;47.744;10.580;2022-07-17T10:47:50;27.60;17.50
4279;DHT22;2153;47.744;10.580;2022-07-17T10:50:19;27.40;13.20
4279;DHT22;2153;47.744;10.580;2022-07-17T10:52:59;27.50;10.60
4279;DHT22;2153;47.744;10.580;2022-07-17T10:55:28;27.70;13.10
4279;DHT22;2153;47.744;10.580;2022-07-17T10:57:56;27.20;10.20
4279;DHT22;2153;47.744;10.580;2022-07-17T11:00:23;27.30;15.00
4279;DHT22;2153;47.744;10.580;2022-07-17T11:02:50;27.00;10.70
4279;DHT22;2153;47.744;10.580;2022-07-17T11:05:17;26.40;13.40
4279;DHT22;2153;47.744;10.580;2022-07-17T11:07:51;26.90;19.20
4279;DHT22;2153;47.744;10.580;2022-07-17T11:10:19;26.90;9.90
4279;DHT22;2153;47.744;10.580;2022-07-17T11:12:47;27.00;15.50
4279;DHT22;2153;47.744;10.580;2022-07-17T11:15:15;27.30;16.60
4279;DHT22;2153;47.744;10.580;2022-07-17T11:17:46;27.70;15.10
4279;DHT22;2153;47.744;10.580;2022-07-17T11:20:13;27.10;9.20
4279;DHT22;2153;47.744;10.580;2022-07-17T11:22:41;26.70;9.30
4279;DHT22;2153;47.744;10.580;2022-07-17T11:25:08;26.80;12.10
4279;DHT22;2153;47.744;10.580;2022-07-17T11:27:37;26.90;12.50
4279;DHT22;2153;47.744;10.580;2022-07-17T11:30:11;27.20;13.80
4279;DHT22;2153;47.744;10.580;2022-07-17T11:32:41;27.30;9.80
4279;DHT22;2153;47.744;10.580;2022-07-17T11:35:18;27.20;11.00
4279;DHT22;2153;47.744;10.580;2022-07-17T11:37:45;27.60;10.40
4279;DHT22;2153;47.744;10.580;2022-07-17T11:40:12;28.00;15.50
4279;DHT22;2153;47.744;10.580;2022-07-17T11:42:38;28.10;9.90
4279;DHT22;2153;47.744;10.580;2022-07-17T11:45:08;28.00;6.20
4279;DHT22;2153;47.744;10.580;2022-07-17T11:47:35;27.70;4.40
4279;DHT22;2153;47.744;10.580;2022-07-17T11:50:08;27.60;5.70
4279;DHT22;2153;47.744;10.580;2022-07-17T11:52:43;27.70;8.30
4279;DHT22;2153;47.744;10.580;2022-07-17T11:55:10;27.60;18.50
4279;DHT22;2153;47.744;10.580;2022-07-17T11:57:42;28.20;13.60
4279;DHT22;2153;47.744;10.580;2022-07-17T12:00:14;28.50;9.70
4279;DHT22;2153;47.744;10.580;2022-07-17T12:02:41;27.90;3.80
4279;DHT22;2153;47.744;10.580;2022-07-17T12:05:08;27.30;4.20
4279;DHT22;2153;47.744;10.580;2022-07-17T12:07:40;27.70;6.20
4279;DHT22;2153;47.744;10.580;2022-07-17T12:10:12;27.90;9.50
4279;DHT22;2153;47.744;10.580;2022-07-17T12:12:40;28.20;4.00
4279;DHT22;2153;47.744;10.580;2022-07-17T12:15:19;28.60;12.20
4279;DHT22;2153;47.744;10.580;2022-07-17T12:17:46;28.80;3.90
4279;DHT22;2153;47.744;10.580;2022-07-17T12:20:13;28.80;7.40
4279;DHT22;2153;47.744;10.580;2022-07-17T12:22:44;29.20;10.80
4279;DHT22;2153;47.744;10.580;2022-07-17T12:25:22;29.70;7.10
4279;DHT22;2153;47.744;10.580;2022-07-17T12:27:48;29.60;3.40
4279;DHT22;2153;47.744;10.580;2022-07-17T12:30:15;29.50;2.00
4279;DHT22;2153;47.744;10.580;2022-07-17T12:32:43;29.50;4.20
4279;DHT22;2153;47.744;10.580;2022-07-17T12:35:10;29.70;1.00
4279;DHT22;2153;47.744;10.580;2022-07-17T12:37:37;29.30;1.00
4279;DHT22;2153;47.744;10.580;2022-07-17T12:40:05;29.60;1.00
4279;DHT22;2153;47.744;10.580;2022-07-17T12:42:32;29.20;1.00
4279;DHT22;2153;47.744;10.580;2022-07-17T12:44:59;29.40;1.00
4279;DHT22;2153;47.744;10.580;2022-07-17T12:47:27;29.00;1.00
4279;DHT22;2153;47.744;10.580;2022-07-17T12:49:55;28.30;1.00
4279;DHT22;2153;47.744;10.580;2022-07-17T12:52:22;28.30;1.00
4279;DHT22;2153;47.744;10.580;2022-07-17T12:54:48;28.50;3.00
4279;DHT22;2153;47.744;10.580;2022-07-17T12:57:15;28.70;1.00
4279;DHT22;2153;47.744;10.580;2022-07-17T12:59:42;28.80;1.00
4279;DHT22;2153;47.744;10.580;2022-07-17T13:02:09;29.10;2.50
4279;DHT22;2153;47.744;10.580;2022-07-17T13:04:37;29.30;1.00
4279;DHT22;2153;47.744;10.580;2022-07-17T13:07:05;28.90;1.00
4279;DHT22;2153;47.744;10.580;2022-07-17T13:09:32;28.40;1.00
4279;DHT22;2153;47.744;10.580;2022-07-17T13:11:58;28.80;1.00
4279;DHT22;2153;47.744;10.580;2022-07-17T13:14:25;28.50;1.00
4279;DHT22;2153;47.744;10.580;2022-07-17T13:16:52;27.70;1.00
4279;DHT22;2153;47.744;10.580;2022-07-17T13:19:19;28.20;1.00
4279;DHT22;2153;47.744;10.580;2022-07-17T13:21:47;28.90;4.90
4279;DHT22;2153;47.744;10.580;2022-07-17T13:24:15;29.40;2.80
4279;DHT22;2153;47.744;10.580;2022-07-17T13:26:42;29.40;2.20
4279;DHT22;2153;47.744;10.580;2022-07-17T13:29:08;29.90;6.10
4279;DHT22;2153;47.744;10.580;2022-07-17T13:31:35;30.10;7.50
4279;DHT22;2153;47.744;10.580;2022-07-17T13:34:02;30.60;3.30
4279;DHT22;2153;47.744;10.580;2022-07-17T13:36:29;30.10;1.00
4279;DHT22;2153;47.744;10.580;2022-07-17T13:38:56;30.50;3.50
4279;DHT22;2153;47.744;10.580;2022-07-17T13:41:24;30.50;1.00
4279;DHT22;2153;47.744;10.580;2022-07-17T13:43:51;30.30;1.00
4279;DHT22;2153;47.744;10.580;2022-07-17T13:46:18;29.80;1.00
4279;DHT22;2153;47.744;10.580;2022-07-17T13:48:45;30.10;1.00
4279;DHT22;2153;47.744;10.580;2022-07-17T13:51:12;29.70;1.00
4279;DHT22;2153;47.744;10.580;2022-07-17T13:53:39;30.10;1.00
4279;DHT22;2153;47.744;10.580;2022-07-17T13:56:06;29.80;1.00
4279;DHT22;2153;47.744;10.580;2022-07-17T13:58:34;29.80;1.00
4279;DHT22;2153;47.744;10.580;2022-07-17T14:01:01;30.10;1.00
4279;DHT22;2153;47.744;10.580;2022-07-17T14:03:28;30.20;1.00
4279;DHT22;2153;47.744;10.580;2022-07-17T14:05:55;29.80;1.00
4279;DHT22;2153;47.744;10.580;2022-07-17T14:08:22;30.00;1.00
4279;DHT22;2153;47.744;10.580;2022-07-17T14:10:49;30.00;1.00
4279;DHT22;2153;47.744;10.580;2022-07-17T14:13:16;30.10;1.00
4279;DHT22;2153;47.744;10.580;2022-07-17T14:15:44;29.70;1.00
4279;DHT22;2153;47.744;10.580;2022-07-17T14:18:11;29.80;1.00
4279;DHT22;2153;47.744;10.580;2022-07-17T14:20:38;30.00;1.00
4279;DHT22;2153;47.744;10.580;2022-07-17T14:23:04;29.80;1.00
4279;DHT22;2153;47.744;10.580;2022-07-17T14:25:31;30.00;1.00
4279;DHT22;2153;47.744;10.580;2022-07-17T14:27:58;30.10;1.00
4279;DHT22;2153;47.744;10.580;2022-07-17T16:25:53;30.30;1.00
4279;DHT22;2153;47.744;10.580;2022-07-17T16:28:20;26.30;1.00
4279;DHT22;2153;47.744;10.580;2022-07-17T16:30:47;26.30;1.00
4279;DHT22;2153;47.744;10.580;2022-07-17T16:33:15;26.40;1.00
4279;DHT22;2153;47.744;10.580;2022-07-17T16:35:41;26.40;1.00
4279;DHT22;2153;47.744;10.580;2022-07-17T16:38:08;26.40;1.00
4279;DHT22;2153;47.744;10.580;2022-07-17T16:40:35;26.30;1.00
4279;DHT22;2153;47.744;10.580;2022-07-17T16:43:02;26.20;1.00
4279;DHT22;2153;47.744;10.580;2022-07-17T16:45:28;26.20;1.00
4279;DHT22;2153;47.744;10.580;2022-07-17T16:47:55;26.10;1.00
4279;DHT22;2153;47.744;10.580;2022-07-17T16:50:23;25.90;1.00
4279;DHT22;2153;47.744;10.580;2022-07-17T16:52:51;25.80;1.00
4279;DHT22;2153;47.744;10.580;2022-07-17T16:55:18;25.70;1.00
4279;DHT22;2153;47.744;10.580;2022-07-17T16:57:45;25.60;1.00
4279;DHT22;2153;47.744;10.580;2022-07-17T17:00:13;25.50;1.00
4279;DHT22;2153;47.744;10.580;2022-07-17T17:02:40;25.40;1.00
4279;DHT22;2153;47.744;10.580;2022-07-17T17:05:08;25.30;1.00
4279;DHT22;2153;47.744;10.580;2022-07-17T17:07:37;25.20;1.00
4279;DHT22;2153;47.744;10.580;2022-07-17T17:10:05;25.20;1.00
4279;DHT22;2153;47.744;10.580;2022-07-17T17:12:32;25.10;1.00
4279;DHT22;2153;47.744;10.580;2022-07-17T17:14:59;25.10;1.00
4279;DHT22;2153;47.744;10.580;2022-07-17T17:17:26;25.00;1.00
4279;DHT22;2153;47.744;10.580;2022-07-17T17:19:52;24.90;1.00
4279;DHT22;2153;47.744;10.580;2022-07-17T17:22:19;24.80;1.00
4279;DHT22;2153;47.744;10.580;2022-07-17T17:24:47;24.70;1.00
4279;DHT22;2153;47.744;10.580;2022-07-17T17:27:14;24.70;1.00
4279;DHT22;2153;47.744;10.580;2022-07-17T17:29:40;24.60;1.00
4279;DHT22;2153;47.744;10.580;2022-07-17T17:32:07;24.50;1.00
4279;DHT22;2153;47.744;10.580;2022-07-17T17:34:34;24.50;1.00
4279;DHT22;2153;47.744;10.580;2022-07-17T17:37:01;24.40;1.00
4279;DHT22;2153;47.744;10.580;2022-07-17T17:39:27;24.40;1.00
4279;DHT22;2153;47.744;10.580;2022-07-17T17:41:55;24.20;1.00
4279;DHT22;2153;47.744;10.580;2022-07-17T17:44:22;24.20;1.00
4279;DHT22;2153;47.744;10.580;2022-07-17T17:46:50;24.10;1.00
4279;DHT22;2153;47.744;10.580;2022-07-17T17:49:17;24.10;1.00
4279;DHT22;2153;47.744;10.580;2022-07-17T17:51:44;24.10;1.00
4279;DHT22;2153;47.744;10.580;2022-07-17T17:54:11;24.00;1.00